Time;durP1;ratioP1;P1;durP2;ratioP2;P2;SDS_P1;SDS_P2;PMS_P1;PMS_P2;Temp;Humidity;BMP_temperature;BMP_pressure;BME280_temperature;BME280_humidity;BME280_pressure;Samples;Min_cycle;Max_cycle;Signal;HPM_P1;HPM_P2
2022/08/02 06:25:49;;;;;;;22.80;18.32;;;;;;;22.01;96.94;99456.56;1740707;82;21742;-39
2022/08/02 06:28:16;;;;;;;21.45;17.60;;;;;;;22.21;95.54;99451.41;1696977;83;21073;-39
2022/08/02 06:30:43;;;;;;;18.82;16.57;;;;;;;22.37;93.86;99451.30;1646949;83;21138;-48
2022/08/02 06:33:11;;;;;;;23.32;18.60;;;;;;;22.46;91.67;99455.59;1703367;83;21026;-48
2022/08/02 06:35:58;;;;;;;19.35;16.42;;;;;;;22.48;91.37;99455.48;1700730;83;21590;-40
2022/08/02 06:38:26;;;;;;;20.02;16.60;;;;;;;22.52;90.81;99457.88;1683964;83;20994;-47
2022/08/02 06:41:04;;;;;;;17.48;15.43;;;;;;;22.65;89.86;99465.09;1695454;83;21053;-48
2022/08/02 06:43:53;;;;;;;20.97;16.25;;;;;;;22.71;88.79;99458.90;1690001;84;21560;-40
2022/08/02 06:46:20;;;;;;;17.90;16.00;;;;;;;22.87;87.95;99464.61;1686361;83;21062;-40
2022/08/02 06:48:46;;;;;;;22.82;16.12;;;;;;;22.98;86.56;99459.48;1709116;84;22020;-48
2022/08/02 06:51:13;;;;;;;17.23;14.58;;;;;;;23.10;86.83;99461.34;1701578;84;21108;-40
2022/08/02 06:53:40;;;;;;;17.00;15.20;;;;;;;23.26;85.81;99461.22;1688208;84;21180;-48
2022/08/02 06:56:07;;;;;;;16.77;14.98;;;;;;;23.36;84.02;99450.30;1689225;83;21098;-41
2022/08/02 06:58:35;;;;;;;19.52;13.25;;;;;;;23.38;83.27;99443.06;1702173;82;21064;-48
2022/08/02 07:01:05;;;;;;;15.20;13.60;;;;;;;23.45;84.03;99436.83;1709905;83;21521;-48
2022/08/02 07:03:32;;;;;;;13.25;11.85;;;;;;;23.63;83.34;99434.30;1692010;83;21009;-49
2022/08/02 07:05:59;;;;;;;13.38;11.30;;;;;;;23.74;79.02;99429.57;1656324;82;21020;-48
2022/08/02 07:08:25;;;;;;;12.05;10.80;;;;;;;23.76;78.51;99426.30;1703298;83;21057;-49
2022/08/02 07:10:52;;;;;;;12.07;10.08;;;;;;;23.80;77.73;99423.81;1639281;84;21076;-41
2022/08/02 07:13:19;;;;;;;12.50;11.20;;;;;;;23.91;77.86;99427.09;1700162;82;21565;-41
2022/08/02 07:15:45;;;;;;;13.05;11.73;;;;;;;24.03;77.77;99428.42;1696633;84;21010;-40
2022/08/02 07:18:14;;;;;;;16.75;11.00;;;;;;;24.14;76.28;99428.54;1707135;83;22270;-40
2022/08/02 07:20:41;;;;;;;11.22;10.03;;;;;;;24.23;76.03;99431.52;1698586;83;21097;-49
2022/08/02 07:23:08;;;;;;;12.88;11.40;;;;;;;24.29;75.25;99439.11;1689897;83;21044;-49
2022/08/02 07:25:35;;;;;;;14.00;11.30;;;;;;;24.21;75.06;99440.98;1678145;84;21585;-49
2022/08/02 07:28:03;;;;;;;11.33;10.23;;;;;;;24.18;75.89;99443.00;1679757;84;21038;-41
2022/08/02 07:30:31;;;;;;;12.03;10.88;;;;;;;24.28;76.15;99450.28;1687240;82;21062;-43
2022/08/02 07:32:58;;;;;;;11.73;10.53;;;;;;;24.39;73.82;99449.08;1701113;84;21593;-41
2022/08/02 07:35:25;;;;;;;11.25;10.15;;;;;;;24.35;73.71;99444.05;1707793;82;21010;-40
2022/08/02 07:37:52;;;;;;;9.63;8.63;;;;;;;24.34;72.91;99449.88;1701350;83;21052;-40
2022/08/02 07:40:19;;;;;;;11.28;8.20;;;;;;;24.32;70.96;99455.79;1696985;82;21633;-47
2022/08/02 07:43:04;;;;;;;15.15;9.08;;;;;;;24.32;71.35;99454.94;1685116;83;21083;-41
2022/08/02 07:45:32;;;;;;;9.80;8.55;;;;;;;24.38;71.08;99450.05;1687915;83;21541;-39
2022/08/02 07:47:58;;;;;;;11.33;9.75;;;;;;;24.44;72.45;99453.25;1704661;82;21020;-40
2022/08/02 07:50:27;;;;;;;13.58;10.40;;;;;;;24.63;72.22;99445.63;1708930;82;21057;-40
2022/08/02 07:52:53;;;;;;;11.65;10.45;;;;;;;24.84;71.87;99451.27;1696410;83;21468;-41
2022/08/02 07:55:20;;;;;;;10.45;9.35;;;;;;;24.87;70.57;99451.88;1692159;83;21043;-48
2022/08/02 07:57:47;;;;;;;10.35;9.28;;;;;;;24.69;70.22;99450.54;1696773;83;21080;-48
2022/08/02 08:00:16;;;;;;;10.28;8.58;;;;;;;24.48;71.12;99452.94;1697966;83;21552;-40
2022/08/02 08:02:42;;;;;;;9.63;8.43;;;;;;;24.33;70.35;99456.16;1675496;83;21059;-48
2022/08/02 08:05:09;;;;;;;12.28;8.80;;;;;;;24.25;70.92;99458.52;1696240;82;21101;-48
2022/08/02 08:07:38;;;;;;;10.98;8.15;;;;;;;24.38;72.51;99459.89;1698625;82;21550;-48
2022/08/02 08:10:06;;;;;;;8.78;7.90;;;;;;;24.45;72.13;99454.96;1692509;83;21060;-41
2022/08/02 08:12:33;;;;;;;9.53;7.78;;;;;;;24.39;72.19;99456.25;1704848;83;21524;-48
2022/08/02 08:15:02;;;;;;;9.18;7.42;;;;;;;24.32;70.69;99458.47;1696510;83;21667;-48
2022/08/02 08:17:29;;;;;;;8.23;7.40;;;;;;;24.26;71.54;99462.91;1708151;82;21040;-40
2022/08/02 08:19:56;;;;;;;14.33;7.95;;;;;;;24.26;71.18;99456.22;1689508;83;21078;-48
2022/08/02 08:22:24;;;;;;;8.33;7.53;;;;;;;24.31;71.28;99454.09;1688874;83;21589;-48
2022/08/02 08:24:50;;;;;;;9.88;7.37;;;;;;;24.36;70.29;99460.48;1690730;83;21052;-41
2022/08/02 08:27:17;;;;;;;13.65;7.85;;;;;;;24.36;69.16;99455.14;1706172;83;21222;-48
2022/08/02 08:29:44;;;;;;;8.28;7.45;;;;;;;24.30;69.66;99460.88;1671005;83;21058;-48
2022/08/02 08:32:12;;;;;;;12.68;7.45;;;;;;;24.18;70.06;99458.59;1692297;84;21009;-48
2022/08/02 08:34:39;;;;;;;11.68;7.05;;;;;;;24.09;70.01;99465.89;1685832;83;21638;-40
2022/08/02 08:37:05;;;;;;;8.83;7.37;;;;;;;24.01;69.55;99460.23;1693857;83;21346;-41
2022/08/02 08:39:32;;;;;;;8.05;7.35;;;;;;;24.02;70.42;99460.11;1694796;82;21105;-40
2022/08/02 08:41:59;;;;;;;7.60;6.90;;;;;;;24.18;69.91;99462.59;1688409;83;21099;-41
2022/08/02 08:44:26;;;;;;;8.38;7.47;;;;;;;24.34;69.35;99460.56;1683955;84;21013;-41
2022/08/02 08:46:54;;;;;;;8.18;6.80;;;;;;;24.45;69.07;99459.82;1632216;84;21046;-40
2022/08/02 08:49:34;;;;;;;9.78;7.00;;;;;;;24.50;68.66;99460.84;1695089;84;21101;-41
2022/08/02 08:52:04;;;;;;;9.30;6.83;;;;;;;24.57;68.48;99464.30;1689375;83;21018;-40
2022/08/02 08:54:32;;;;;;;7.45;6.75;;;;;;;24.74;67.69;99466.27;1694543;83;21045;-42
2022/08/02 08:56:59;;;;;;;8.43;7.28;;;;;;;24.92;66.86;99461.77;1685416;83;21079;-47
2022/08/02 08:59:44;;;;;;;10.00;6.55;;;;;;;25.10;65.76;99455.59;1671979;83;21139;-47
2022/08/02 09:02:17;;;;;;;10.53;6.58;;;;;;;25.21;65.95;99460.16;1680819;82;21497;-47
2022/08/02 09:04:44;;;;;;;7.10;6.28;;;;;;;25.31;65.05;99456.34;1677588;83;21055;-47
2022/08/02 09:07:11;;;;;;;9.00;6.55;;;;;;;25.46;62.97;99454.72;1691009;83;21622;-47
2022/08/02 09:09:37;;;;;;;14.33;7.53;;;;;;;25.61;63.38;99455.86;1691241;84;21089;-47
2022/08/02 09:12:16;;;;;;;6.50;5.67;;;;;;;25.72;61.73;99459.44;1683212;83;21039;-47
2022/08/02 09:14:42;;;;;;;6.62;6.03;;;;;;;25.62;61.33;99458.41;1680909;84;21056;-47
2022/08/02 09:17:21;;;;;;;7.00;6.30;;;;;;;25.47;62.05;99456.91;1694154;83;21494;-46
2022/08/02 09:20:06;;;;;;;6.75;6.10;;;;;;;25.38;62.45;99454.41;1683730;83;21083;-46
2022/08/02 09:22:34;;;;;;;8.48;5.40;;;;;;;25.37;62.45;99456.73;1683389;84;21409;-47
2022/08/02 09:25:01;;;;;;;7.47;5.75;;;;;;;25.35;62.50;99457.34;1691539;83;21445;-48
2022/08/02 09:27:27;;;;;;;6.22;5.62;;;;;;;25.37;62.83;99453.20;1678415;83;21041;-48
2022/08/02 09:29:54;;;;;;;8.03;5.55;;;;;;;25.44;62.94;99451.28;1626369;85;21473;-47
2022/08/02 09:32:20;;;;;;;7.30;5.17;;;;;;;25.51;62.53;99451.67;1688090;84;21065;-48
2022/08/02 09:34:49;;;;;;;5.92;4.92;;;;;;;25.61;62.14;99458.05;1689688;84;21058;-48
2022/08/02 09:37:29;;;;;;;5.03;4.62;;;;;;;25.70;61.17;99466.75;1685210;84;21057;-48
2022/08/02 09:39:59;;;;;;;11.05;4.70;;;;;;;25.80;59.83;99462.05;1674613;84;21418;-49
2022/08/02 09:42:26;;;;;;;6.33;5.30;;;;;;;25.89;60.19;99450.64;1689307;84;21076;-47
2022/08/02 09:44:57;;;;;;;7.40;4.67;;;;;;;26.03;59.52;99450.42;1695213;82;21050;-48
2022/08/02 09:51:48;;;;;;;5.20;4.70;;;;;;;26.15;58.71;99442.80;1799824;79;22864;-41
2022/08/02 09:54:19;;;;;;;6.95;5.05;;;;;;;26.14;58.45;99446.91;1755827;80;21597;-40
2022/08/02 09:56:51;;;;;;;7.17;5.90;;;;;;;26.16;59.01;99449.00;1731544;82;20965;-47
2022/08/02 09:59:19;;;;;;;8.35;6.03;;;;;;;26.20;58.96;99438.39;1729589;83;21080;-47
2022/08/02 10:01:47;;;;;;;8.45;6.10;;;;;;;26.21;59.24;99443.66;1730007;82;20989;-47
2022/08/02 10:04:14;;;;;;;6.20;5.60;;;;;;;26.22;59.74;99439.14;1695788;84;21047;-41
2022/08/02 10:06:45;;;;;;;7.85;5.92;;;;;;;26.22;60.15;99439.14;1683871;85;21010;-50
2022/08/02 10:09:12;;;;;;;6.08;5.47;;;;;;;26.19;60.63;99432.66;1693476;83;21038;-42
2022/08/02 10:11:38;;;;;;;7.00;6.30;;;;;;;26.13;60.91;99431.31;1692209;84;21408;-48
2022/08/02 10:14:06;;;;;;;6.53;5.92;;;;;;;26.17;60.65;99432.80;1692647;84;21100;-40
2022/08/02 10:16:34;;;;;;;8.85;5.95;;;;;;;26.25;60.36;99429.02;1695611;84;21036;-47
2022/08/02 10:19:03;;;;;;;6.30;5.15;;;;;;;26.36;60.76;99431.34;1695455;84;21112;-41
2022/08/02 10:21:57;;;;;;;8.95;5.22;;;;;;;26.48;60.09;99429.91;1695195;84;21045;-40
2022/08/02 10:24:30;;;;;;;6.70;6.00;;;;;;;26.61;60.13;99430.27;1695300;84;21404;-41
2022/08/02 10:26:58;;;;;;;6.00;5.50;;;;;;;26.78;58.82;99436.48;1683471;84;21000;-48
2022/08/02 10:29:35;;;;;;;11.78;5.67;;;;;;;26.91;57.91;99447.09;1674850;84;22073;-47
2022/08/02 10:32:09;;;;;;;5.60;5.10;;;;;;;27.05;56.98;99446.81;1693630;84;20997;-48
2022/08/02 10:35:05;;;;;;;5.45;4.95;;;;;;;27.28;56.65;99440.94;1695366;84;21069;-47
2022/08/02 10:37:33;;;;;;;6.20;5.60;;;;;;;27.51;56.25;99438.53;1695808;84;21025;-40
2022/08/02 10:40:00;;;;;;;6.20;5.60;;;;;;;27.65;54.28;99431.98;1695740;84;21080;-48
2022/08/02 10:42:48;;;;;;;8.30;5.33;;;;;;;27.90;54.10;99432.65;1695865;84;21049;-47
2022/08/02 10:45:17;;;;;;;7.37;5.70;;;;;;;28.20;53.28;99435.88;1695669;84;21620;-49
2022/08/02 10:48:11;;;;;;;5.72;5.08;;;;;;;28.25;51.71;99434.98;1695943;84;21056;-41
2022/08/02 10:50:51;;;;;;;4.90;4.40;;;;;;;28.20;52.51;99430.00;1685792;84;21598;-48
2022/08/02 10:53:28;;;;;;;5.58;4.90;;;;;;;28.35;52.26;99417.95;1678389;85;21620;-49
2022/08/02 10:55:58;;;;;;;5.20;4.70;;;;;;;28.57;51.95;99416.89;1700754;83;21093;-50
2022/08/02 10:58:27;;;;;;;6.78;5.30;;;;;;;28.75;51.28;99416.23;1668316;85;20977;-42
2022/08/02 11:00:54;;;;;;;5.20;4.70;;;;;;;28.72;50.69;99420.07;1717444;83;21555;-41
2022/08/02 11:03:33;;;;;;;5.12;4.60;;;;;;;28.70;51.06;99429.25;1660533;84;21030;-42
2022/08/02 11:06:04;;;;;;;5.33;4.83;;;;;;;28.67;50.63;99429.54;1714485;83;21018;-44
2022/08/02 11:08:31;;;;;;;6.72;5.45;;;;;;;28.68;50.92;99422.67;1716261;82;20970;-42
2022/08/02 11:11:03;;;;;;;5.60;4.95;;;;;;;28.78;50.81;99419.52;1715198;83;21544;-42
2022/08/02 11:13:29;;;;;;;9.98;4.97;;;;;;;28.97;50.23;99419.24;1676031;85;21513;-42
2022/08/02 11:16:03;;;;;;;5.55;4.20;;;;;;;29.13;49.62;99412.33;1701358;84;21557;-51
2022/08/02 11:18:54;;;;;;;5.78;5.17;;;;;;;29.06;48.95;99411.20;1703411;83;21525;-49
2022/08/02 11:21:33;;;;;;;5.62;4.62;;;;;;;28.68;48.78;99409.71;1709321;83;21006;-50
2022/08/02 11:24:27;;;;;;;6.72;4.87;;;;;;;28.39;49.37;99410.45;1714971;82;21037;-45
2022/08/02 11:26:53;;;;;;;7.37;4.70;;;;;;;28.02;51.66;99409.59;1715739;83;21529;-42
2022/08/02 11:29:20;;;;;;;6.08;5.40;;;;;;;27.60;53.59;99416.77;1709600;82;21084;-41
2022/08/02 11:31:47;;;;;;;6.40;5.25;;;;;;;27.28;53.51;99424.83;1712770;82;21584;-41
2022/08/02 11:34:15;;;;;;;7.20;5.35;;;;;;;26.99;53.89;99435.24;1701395;83;21044;-48
2022/08/02 11:36:46;;;;;;;7.28;5.50;;;;;;;26.68;54.76;99443.58;1707148;83;21052;-41
2022/08/02 11:39:16;;;;;;;12.13;7.72;;;;;;;26.36;56.91;99463.52;1708401;83;21061;-42
2022/08/02 11:41:50;;;;;;;10.13;7.12;;;;;;;25.86;60.32;99465.14;1711803;83;21049;-41
2022/08/02 11:44:18;;;;;;;12.25;6.40;;;;;;;25.20;63.34;99477.20;1708764;82;21113;-49
2022/08/02 11:46:47;;;;;;;9.65;6.35;;;;;;;24.57;65.98;99472.80;1695863;83;21076;-48
2022/08/02 11:49:16;;;;;;;12.30;7.12;;;;;;;23.99;68.15;99475.00;1640369;86;22075;-40
2022/08/02 11:52:04;;;;;;;10.88;7.50;;;;;;;23.50;71.71;99485.43;1709039;83;21058;-49
2022/08/02 11:54:33;;;;;;;8.55;7.35;;;;;;;23.09;75.22;99482.31;1728873;81;21035;-49
2022/08/02 11:57:19;;;;;;;7.95;6.60;;;;;;;22.70;79.22;99484.33;1728332;83;21030;-48
2022/08/02 11:59:50;;;;;;;10.95;6.67;;;;;;;22.36;82.67;99482.41;1728698;81;21047;-39
2022/08/02 12:02:19;;;;;;;12.18;7.70;;;;;;;22.03;86.82;99489.27;1693151;85;21847;-49
2022/08/02 12:04:59;;;;;;;15.72;6.03;;;;;;;21.75;90.92;99497.58;1663289;86;21108;-40
2022/08/02 12:07:32;;;;;;;11.15;6.55;;;;;;;21.42;93.60;99493.73;1675437;85;21025;-39
2022/08/02 12:10:00;;;;;;;16.10;6.60;;;;;;;21.06;99.12;99490.46;1665973;85;21487;-39
2022/08/02 12:12:27;;;;;;;7.42;5.62;;;;;;;20.79;100.00;99489.70;1663927;86;21080;-40
2022/08/02 12:14:54;;;;;;;13.72;5.55;;;;;;;20.60;100.00;99481.02;1665195;85;21063;-40
